Time;durP1;ratioP1;P1;durP2;ratioP2;P2;SDS_P1;SDS_P2;PMS_P1;PMS_P2;Temp;Humidity;BMP_temperature;BMP_pressure;BME280_temperature;BME280_humidity;BME280_pressure;Samples;Min_cycle;Max_cycle;Signal;HPM_P1;HPM_P2
2022/04/02 00:00:14;;;;;;;2.53;2.33;;;;;;;9.45;44.88;101154.00;4970203;28;20504;-67
2022/04/02 00:02:39;;;;;;;4.30;2.83;;;;;;;9.48;44.75;101151.09;4972810;28;20369;-66
2022/04/02 00:05:05;;;;;;;4.10;2.65;;;;;;;9.46;45.01;101153.91;4973205;28;20111;-66
2022/04/02 00:07:30;;;;;;;4.53;2.80;;;;;;;9.45;45.03;101152.19;4971734;28;20026;-67
2022/04/02 00:09:55;;;;;;;4.80;2.55;;;;;;;9.45;44.76;101149.50;4971752;28;20428;-66
2022/04/02 00:12:21;;;;;;;5.43;2.78;;;;;;;9.46;45.41;101156.59;4971819;28;20022;-67
2022/04/02 00:14:47;;;;;;;5.45;2.70;;;;;;;9.44;44.22;101157.63;4972252;28;20027;-67
2022/04/02 00:17:13;;;;;;;2.63;2.38;;;;;;;9.48;45.71;101167.16;4971604;28;20042;-67
2022/04/02 00:19:38;;;;;;;5.57;2.58;;;;;;;9.48;44.75;101168.00;4974646;28;20065;-67
2022/04/02 00:22:04;;;;;;;3.53;2.30;;;;;;;9.45;44.96;101162.03;4974910;28;20113;-67
2022/04/02 00:24:30;;;;;;;2.40;2.10;;;;;;;9.41;45.58;101160.56;4975137;28;20057;-66
2022/04/02 00:26:55;;;;;;;7.82;2.55;;;;;;;9.40;44.97;101165.06;4973499;28;20034;-67
2022/04/02 00:29:21;;;;;;;4.10;2.70;;;;;;;9.35;45.87;101159.19;4975051;28;20026;-66
2022/04/02 00:31:46;;;;;;;3.97;2.97;;;;;;;9.32;44.96;101165.59;4975053;28;20026;-67
2022/04/02 00:34:12;;;;;;;3.58;2.05;;;;;;;9.37;45.54;101165.28;4973618;28;20027;-67
2022/04/02 00:36:38;;;;;;;3.00;2.40;;;;;;;9.40;44.63;101165.06;4973623;28;20114;-67
2022/04/02 00:39:08;;;;;;;3.22;2.00;;;;;;;9.41;45.31;101169.41;4975048;28;20427;-67
2022/04/02 00:41:34;;;;;;;8.27;2.42;;;;;;;9.40;45.09;101158.84;4973224;28;20026;-67
2022/04/02 00:44:08;;;;;;;5.07;2.53;;;;;;;9.42;44.80;101159.56;4973367;28;20378;-67
2022/04/02 00:46:33;;;;;;;7.55;2.88;;;;;;;9.42;45.24;101163.09;4974367;28;20049;-67
2022/04/02 00:48:59;;;;;;;6.65;3.17;;;;;;;9.42;45.44;101155.09;4973293;28;20030;-67
2022/04/02 00:51:24;;;;;;;6.07;2.83;;;;;;;9.44;44.62;101161.16;4974747;28;20026;-67
2022/04/02 00:53:51;;;;;;;4.28;2.40;;;;;;;9.42;45.94;101149.75;4956832;28;20065;-69
2022/04/02 00:56:17;;;;;;;3.15;2.50;;;;;;;9.41;45.00;101158.72;4974540;28;20497;-67
2022/04/02 00:58:43;;;;;;;4.35;2.47;;;;;;;9.34;45.44;101157.47;4974541;28;20043;-67
2022/04/02 01:01:08;;;;;;;3.95;2.10;;;;;;;9.30;45.52;101151.50;4974448;28;20085;-67
2022/04/02 01:03:35;;;;;;;5.03;2.00;;;;;;;9.27;46.02;101150.88;4974555;28;20039;-67
2022/04/02 01:06:01;;;;;;;7.40;2.42;;;;;;;9.26;45.64;101159.88;4974361;28;20427;-67
2022/04/02 01:08:26;;;;;;;4.53;2.55;;;;;;;9.27;46.23;101154.41;4974513;28;20157;-67
2022/04/02 01:10:55;;;;;;;4.30;2.17;;;;;;;9.27;45.66;101162.41;4973053;28;20023;-67
2022/04/02 01:13:22;;;;;;;3.13;2.40;;;;;;;9.28;45.53;101163.28;4973392;28;20022;-67
2022/04/02 01:15:47;;;;;;;2.60;2.13;;;;;;;9.31;45.61;101160.38;4973433;28;20042;-67
2022/04/02 01:18:13;;;;;;;6.18;2.00;;;;;;;9.32;45.65;101162.91;4957000;28;20035;-67
2022/04/02 01:20:39;;;;;;;2.90;1.83;;;;;;;9.30;45.85;101161.34;4973239;28;20047;-67
2022/04/02 01:23:04;;;;;;;3.85;2.05;;;;;;;9.30;44.92;101156.84;4974609;28;20031;-67
2022/04/02 01:25:32;;;;;;;3.42;2.33;;;;;;;9.32;45.58;101154.91;4974303;28;20372;-67
2022/04/02 01:28:00;;;;;;;6.50;2.35;;;;;;;9.35;45.53;101143.97;4974407;28;20027;-67
2022/04/02 01:30:27;;;;;;;2.08;1.67;;;;;;;9.35;45.46;101153.84;4972961;28;20031;-68
2022/04/02 01:32:53;;;;;;;5.55;3.40;;;;;;;9.33;45.76;101145.06;4974141;28;20085;-68
2022/04/02 01:35:21;;;;;;;6.18;2.08;;;;;;;9.28;45.01;101141.88;4974136;28;20396;-66
2022/04/02 01:37:46;;;;;;;4.05;2.03;;;;;;;9.27;45.38;101153.53;4972888;28;20061;-67
2022/04/02 01:40:12;;;;;;;3.25;2.08;;;;;;;9.27;45.56;101153.53;4972872;28;20027;-67
2022/04/02 01:42:37;;;;;;;3.67;2.28;;;;;;;9.27;45.49;101150.88;4972947;28;20544;-67
2022/04/02 01:45:03;;;;;;;2.92;2.25;;;;;;;9.27;45.68;101157.06;4972807;28;20026;-68
2022/04/02 01:47:29;;;;;;;4.43;2.13;;;;;;;9.27;45.08;101161.56;4974325;28;20054;-68
2022/04/02 01:49:54;;;;;;;3.67;2.67;;;;;;;9.24;45.16;101167.97;4972954;28;20035;-66
2022/04/02 01:52:20;;;;;;;3.22;2.13;;;;;;;9.23;45.73;101165.44;4974279;28;20026;-67
2022/04/02 01:54:46;;;;;;;4.85;2.10;;;;;;;9.20;45.60;101166.50;4973913;28;20460;-67
2022/04/02 01:57:12;;;;;;;5.82;1.98;;;;;;;9.19;45.19;101175.47;4972949;28;20396;-68
2022/04/02 01:59:44;;;;;;;3.40;2.20;;;;;;;9.17;45.33;101179.25;4973995;28;20031;-67
2022/04/02 02:02:09;;;;;;;5.05;2.13;;;;;;;9.16;45.04;101175.72;4977726;28;20037;-67
2022/04/02 02:04:34;;;;;;;2.92;2.00;;;;;;;9.13;44.74;101175.94;4976433;28;20018;-67
2022/04/02 02:07:00;;;;;;;3.92;1.80;;;;;;;9.12;45.63;101173.38;4977450;28;20027;-67
2022/04/02 02:09:26;;;;;;;2.03;1.80;;;;;;;9.09;45.66;101177.13;4977277;28;20019;-67
2022/04/02 02:11:51;;;;;;;1.90;1.80;;;;;;;9.09;44.90;101178.94;4977344;28;20027;-67
2022/04/02 02:14:17;;;;;;;4.88;1.85;;;;;;;9.08;45.28;101177.22;4977190;28;20484;-67
2022/04/02 02:16:42;;;;;;;5.00;2.00;;;;;;;9.08;44.85;101175.41;4975999;28;20022;-67
2022/04/02 02:19:08;;;;;;;2.20;1.50;;;;;;;9.05;45.31;101172.97;4977428;28;20038;-67
2022/04/02 02:21:33;;;;;;;3.42;1.55;;;;;;;9.05;44.71;101177.44;4976902;28;20077;-68
2022/04/02 02:23:59;;;;;;;4.78;1.60;;;;;;;9.01;45.72;101181.31;4959733;28;20027;-67
2022/04/02 02:26:24;;;;;;;3.75;2.35;;;;;;;9.00;45.55;101180.47;4975968;28;20384;-68
2022/04/02 02:28:50;;;;;;;4.55;1.55;;;;;;;8.94;45.26;101185.38;4976867;28;20062;-67
2022/04/02 02:31:15;;;;;;;4.85;2.20;;;;;;;8.94;45.45;101186.25;4959980;28;20022;-67
2022/04/02 02:36:25;;;;;;;3.22;2.03;;;;;;;8.96;45.13;101195.00;4976836;28;20038;-68
2022/04/02 02:38:51;;;;;;;1.80;1.50;;;;;;;8.92;45.26;101192.66;4977087;28;20031;-67
2022/04/02 02:41:16;;;;;;;1.88;1.25;;;;;;;8.94;44.99;101182.72;4975606;28;20619;-67
2022/04/02 02:43:42;;;;;;;5.80;1.92;;;;;;;8.93;44.66;101194.38;4975297;28;20026;-67
2022/04/02 02:46:08;;;;;;;4.53;2.10;;;;;;;8.94;44.99;101188.06;4977065;28;20031;-67
2022/04/02 02:48:34;;;;;;;2.65;1.75;;;;;;;8.95;45.23;101189.78;4976899;28;20046;-66
2022/04/02 02:50:59;;;;;;;3.67;1.60;;;;;;;8.96;45.22;101191.50;4976697;28;20106;-67
2022/04/02 02:53:24;;;;;;;2.30;1.60;;;;;;;8.98;45.87;101195.75;4976524;28;20174;-66
2022/04/02 02:55:51;;;;;;;2.15;1.45;;;;;;;8.98;46.08;101192.22;4977097;28;20062;-66
2022/04/02 02:58:17;;;;;;;6.15;1.40;;;;;;;9.02;45.12;101193.69;4975315;28;20097;-67
2022/04/02 03:00:43;;;;;;;4.38;1.83;;;;;;;9.06;45.73;101197.88;4975417;28;20034;-67
2022/04/02 03:03:09;;;;;;;4.75;1.52;;;;;;;9.09;45.78;101195.84;4975299;28;20511;-67
2022/04/02 03:05:35;;;;;;;2.50;1.50;;;;;;;9.12;45.18;101190.28;4976732;28;20481;-68
2022/04/02 03:08:01;;;;;;;2.33;1.30;;;;;;;9.16;45.21;101185.53;4976395;28;20054;-67
2022/04/02 03:10:27;;;;;;;2.33;1.02;;;;;;;9.17;45.74;101192.59;4975285;28;20048;-65
2022/04/02 03:12:54;;;;;;;2.15;1.75;;;;;;;9.17;45.87;101184.59;4976568;28;20103;-67
2022/04/02 03:15:21;;;;;;;3.15;1.45;;;;;;;9.16;45.37;101190.88;4976425;28;20039;-67
2022/04/02 03:17:47;;;;;;;3.55;1.67;;;;;;;9.17;44.84;101189.94;4976261;28;20084;-67
2022/04/02 03:20:14;;;;;;;3.92;1.52;;;;;;;9.15;44.54;101189.19;4958754;28;20030;-66
2022/04/02 03:22:40;;;;;;;2.38;1.27;;;;;;;9.11;45.50;101183.22;4974879;28;20034;-68
2022/04/02 03:25:17;;;;;;;3.28;1.55;;;;;;;9.11;44.53;101191.22;4976587;28;20027;-67
2022/04/02 03:27:43;;;;;;;3.08;1.45;;;;;;;9.12;44.46;101184.94;4974871;28;20121;-67
2022/04/02 03:30:10;;;;;;;2.42;1.80;;;;;;;9.16;45.57;101198.91;4975932;28;20076;-67
2022/04/02 03:32:52;;;;;;;1.70;1.02;;;;;;;9.18;44.76;101180.97;4975536;28;20538;-66
2022/04/02 03:35:19;;;;;;;1.67;1.20;;;;;;;9.19;44.80;101194.19;4973104;28;20042;-67
2022/04/02 03:37:47;;;;;;;3.17;1.60;;;;;;;9.20;45.40;101181.69;4975996;28;20030;-67
2022/04/02 03:40:15;;;;;;;5.47;1.13;;;;;;;9.22;44.73;101179.75;4975729;28;20023;-65
2022/04/02 03:42:42;;;;;;;3.50;1.80;;;;;;;9.23;44.32;101176.97;4975908;28;20106;-67
2022/04/02 03:45:09;;;;;;;4.30;1.25;;;;;;;9.25;44.38;101179.53;4975883;28;20388;-67
2022/04/02 03:47:34;;;;;;;2.13;1.48;;;;;;;9.27;45.17;101180.25;4975712;28;20025;-68
2022/04/02 03:50:00;;;;;;;2.70;1.02;;;;;;;9.31;44.07;101179.09;4974389;28;20034;-67
2022/04/02 03:52:26;;;;;;;1.83;1.02;;;;;;;9.34;44.50;101178.88;4975470;28;20469;-67
2022/04/02 03:54:51;;;;;;;4.95;1.60;;;;;;;9.36;44.88;101187.63;4974066;28;20511;-67
2022/04/02 03:57:17;;;;;;;1.77;1.20;;;;;;;9.36;45.02;101187.63;4976731;28;20066;-67
2022/04/02 03:59:43;;;;;;;4.15;1.50;;;;;;;9.38;44.18;101191.88;4975413;28;20424;-67
2022/04/02 04:02:10;;;;;;;1.88;1.15;;;;;;;9.40;44.79;101186.44;4975698;28;20085;-67
2022/04/02 04:04:39;;;;;;;1.65;1.02;;;;;;;9.42;43.99;101197.88;4977365;28;20030;-69
2022/04/02 04:07:06;;;;;;;1.95;1.00;;;;;;;9.45;45.03;101196.78;4975756;28;20050;-68
2022/04/02 04:09:31;;;;;;;1.75;1.10;;;;;;;9.43;43.71;101191.56;4975566;28;20109;-69
2022/04/02 04:11:56;;;;;;;2.95;1.50;;;;;;;9.42;44.02;101203.22;4975520;28;20496;-69
2022/04/02 04:14:24;;;;;;;2.00;1.50;;;;;;;9.41;44.22;101206.84;4975204;28;20440;-68
2022/04/02 04:16:50;;;;;;;2.08;1.23;;;;;;;9.40;44.14;101199.81;4975145;28;20027;-68
2022/04/02 04:19:16;;;;;;;1.65;1.15;;;;;;;9.41;44.57;101206.84;4974134;28;20023;-69
2022/04/02 04:21:42;;;;;;;3.85;1.35;;;;;;;9.41;44.10;101204.16;4973738;28;20515;-69
2022/04/02 04:24:09;;;;;;;3.50;1.50;;;;;;;9.43;44.12;101206.75;4973448;28;20035;-68
2022/04/02 04:26:34;;;;;;;2.20;1.35;;;;;;;9.44;44.15;101217.31;4973874;28;20113;-67
2022/04/02 04:29:00;;;;;;;3.30;1.42;;;;;;;9.43;43.80;101212.94;4973650;28;20106;-68
2022/04/02 04:31:25;;;;;;;2.15;1.30;;;;;;;9.43;44.55;101215.63;4975065;28;20042;-69
2022/04/02 04:33:51;;;;;;;4.22;1.70;;;;;;;9.44;43.75;101214.63;4973864;28;20109;-69
2022/04/02 04:36:21;;;;;;;2.95;1.20;;;;;;;9.44;44.71;101209.28;4975059;28;20039;-68
2022/04/02 04:38:47;;;;;;;2.75;0.98;;;;;;;9.43;44.44;101215.63;4973521;28;20070;-68
2022/04/02 04:41:13;;;;;;;1.58;0.98;;;;;;;9.46;43.82;101226.09;4973591;28;20055;-68
2022/04/02 04:43:41;;;;;;;1.48;1.05;;;;;;;9.45;44.55;101219.03;4973442;28;20034;-69
2022/04/02 04:46:07;;;;;;;2.00;0.90;;;;;;;9.46;44.54;101230.59;4975083;28;20472;-68
2022/04/02 04:48:32;;;;;;;2.58;0.70;;;;;;;9.48;43.85;101231.31;4973731;28;20515;-69
2022/04/02 04:50:58;;;;;;;1.85;0.90;;;;;;;9.49;44.21;101227.69;4957413;28;20034;-68
2022/04/02 04:53:23;;;;;;;2.97;1.08;;;;;;;9.49;44.40;101236.53;4974598;28;20137;-67
2022/04/02 04:55:49;;;;;;;4.05;1.13;;;;;;;9.50;44.15;101232.91;4973592;28;20034;-68
2022/04/02 04:58:14;;;;;;;1.42;1.13;;;;;;;9.50;43.69;101232.91;4974690;28;20038;-68
2022/04/02 05:00:43;;;;;;;2.05;1.08;;;;;;;9.50;44.05;101243.59;4974584;28;20395;-68
2022/04/02 05:03:11;;;;;;;1.85;0.60;;;;;;;9.51;44.08;101236.44;4973335;28;20066;-68
2022/04/02 05:05:38;;;;;;;0.50;0.50;;;;;;;9.51;44.62;101236.44;4973418;28;20031;-69
2022/04/02 05:08:04;;;;;;;2.30;0.95;;;;;;;9.50;43.75;101242.75;4974471;28;20025;-69
2022/04/02 05:10:29;;;;;;;1.98;1.00;;;;;;;9.50;43.97;101243.59;4957164;28;20031;-68
2022/04/02 05:12:55;;;;;;;1.20;1.10;;;;;;;9.49;43.13;101249.91;4974659;28;20397;-68
2022/04/02 05:15:21;;;;;;;1.75;0.88;;;;;;;9.50;43.71;101254.31;4974580;28;20461;-68
2022/04/02 05:17:46;;;;;;;2.47;1.10;;;;;;;9.48;43.07;101256.25;4973467;28;20038;-69
2022/04/02 05:20:13;;;;;;;1.67;0.60;;;;;;;9.50;43.97;101253.44;4974315;28;20043;-68
2022/04/02 05:22:39;;;;;;;1.48;0.75;;;;;;;9.53;43.50;101254.09;4973108;28;20402;-69
2022/04/02 05:25:05;;;;;;;1.42;0.77;;;;;;;9.53;43.54;101259.44;4974120;28;20110;-69
2022/04/02 05:27:30;;;;;;;1.17;0.60;;;;;;;9.54;42.66;101255.78;4974550;28;20038;-68
2022/04/02 05:29:55;;;;;;;1.38;0.80;;;;;;;9.54;42.59;101266.50;4973509;28;20031;-68
2022/04/02 05:32:21;;;;;;;0.95;0.52;;;;;;;9.54;42.71;101261.16;4973475;28;20428;-68
2022/04/02 05:34:46;;;;;;;1.00;0.68;;;;;;;9.56;42.39;101269.91;4974843;28;20147;-68
2022/04/02 05:37:13;;;;;;;0.88;0.60;;;;;;;9.53;42.48;101262.09;4978288;28;20022;-68
2022/04/02 05:39:41;;;;;;;1.05;0.80;;;;;;;9.53;42.36;101280.81;4976623;28;20027;-67
2022/04/02 05:42:07;;;;;;;3.83;1.10;;;;;;;9.55;42.30;101275.38;4976824;28;20081;-68
2022/04/02 05:44:32;;;;;;;1.25;1.00;;;;;;;9.54;43.51;101279.00;4977981;28;20118;-68
2022/04/02 05:46:58;;;;;;;1.38;0.88;;;;;;;9.53;42.27;101280.81;4976408;28;20086;-66
2022/04/02 05:49:23;;;;;;;4.82;1.10;;;;;;;9.53;42.76;101280.81;4976606;28;20031;-68
2022/04/02 05:51:48;;;;;;;1.15;0.70;;;;;;;9.54;42.88;101287.88;4976489;28;20030;-69
2022/04/02 05:54:14;;;;;;;2.20;0.80;;;;;;;9.61;42.91;101299.84;4977575;28;20500;-69
2022/04/02 05:56:40;;;;;;;1.85;0.80;;;;;;;9.67;42.73;101299.38;4976448;28;20125;-69
2022/04/02 05:59:06;;;;;;;1.80;0.60;;;;;;;9.71;42.46;101298.22;4977623;28;20509;-68
2022/04/02 06:01:32;;;;;;;0.82;0.82;;;;;;;9.73;42.54;101296.28;4960292;28;20121;-69
2022/04/02 06:03:58;;;;;;;1.17;0.60;;;;;;;9.75;42.83;101307.72;4977535;28;20400;-68
2022/04/02 06:06:23;;;;;;;0.65;0.52;;;;;;;9.79;42.27;101314.56;4960134;28;20035;-68
2022/04/02 06:08:49;;;;;;;1.15;0.75;;;;;;;9.80;42.74;101316.25;4976308;28;20029;-68
2022/04/02 06:11:14;;;;;;;1.05;0.80;;;;;;;9.84;41.81;101317.75;4977357;28;20023;-69
2022/04/02 06:13:39;;;;;;;2.15;0.98;;;;;;;9.86;41.60;101320.28;4976063;28;20039;-68
2022/04/02 06:16:06;;;;;;;1.05;0.90;;;;;;;9.89;42.35;101322.75;4977422;28;20085;-68
2022/04/02 06:18:31;;;;;;;1.02;0.60;;;;;;;9.95;42.59;101325.84;4977446;28;20046;-67
2022/04/02 06:20:57;;;;;;;2.60;0.88;;;;;;;10.02;41.39;101328.06;4977203;28;20388;-68
2022/04/02 06:23:22;;;;;;;3.13;0.68;;;;;;;10.05;41.47;101327.84;4977219;28;20366;-69
2022/04/02 06:25:48;;;;;;;1.48;0.82;;;;;;;10.09;41.97;101331.97;4975912;28;20026;-68
2022/04/02 06:28:14;;;;;;;2.10;0.82;;;;;;;10.14;41.79;101329.84;4975885;28;20052;-68
2022/04/02 06:30:39;;;;;;;1.95;0.80;;;;;;;10.14;41.97;101338.72;4975727;28;20034;-68
2022/04/02 06:33:05;;;;;;;2.08;0.77;;;;;;;10.20;41.10;101337.41;4976928;28;20041;-69
2022/04/02 06:35:30;;;;;;;2.60;0.73;;;;;;;10.25;41.63;101343.28;4975790;28;20033;-67
2022/04/02 06:37:56;;;;;;;2.65;0.85;;;;;;;10.28;41.80;101343.06;4976885;28;20027;-68
2022/04/02 06:40:23;;;;;;;1.35;0.90;;;;;;;10.29;41.29;101351.00;4975513;28;20063;-67
2022/04/02 06:42:49;;;;;;;1.00;0.90;;;;;;;10.34;41.56;101353.31;4976803;28;20034;-67
2022/04/02 06:45:15;;;;;;;1.23;0.60;;;;;;;10.36;41.63;101352.22;4976901;28;20042;-67
2022/04/02 06:47:41;;;;;;;2.00;0.90;;;;;;;10.40;40.79;101360.88;4976512;28;20035;-68
2022/04/02 06:50:09;;;;;;;0.73;0.73;;;;;;;10.43;41.33;101360.66;4959318;28;20045;-67
2022/04/02 06:52:35;;;;;;;2.20;0.80;;;;;;;10.46;40.82;101363.97;4976863;28;20069;-67
2022/04/02 06:55:00;;;;;;;1.17;0.85;;;;;;;10.53;41.07;101365.19;4975398;28;20138;-68
2022/04/02 06:57:26;;;;;;;0.93;0.80;;;;;;;10.59;41.57;101369.25;4975399;28;20031;-67
2022/04/02 06:59:52;;;;;;;2.80;0.85;;;;;;;10.65;41.11;101379.50;4976433;28;20035;-68
2022/04/02 07:02:17;;;;;;;0.73;0.73;;;;;;;10.71;41.25;101379.03;4976314;28;20515;-67
2022/04/02 07:04:43;;;;;;;2.30;0.80;;;;;;;10.79;41.07;101382.00;4976457;28;20057;-67
2022/04/02 07:07:09;;;;;;;0.82;0.70;;;;;;;10.83;40.52;101386.13;4976389;28;20035;-68
2022/04/02 07:09:34;;;;;;;4.78;0.93;;;;;;;10.90;40.82;101390.06;4974926;28;20034;-68
2022/04/02 07:12:00;;;;;;;1.30;0.98;;;;;;;10.98;40.63;101386.78;4976306;28;20041;-67
2022/04/02 07:14:25;;;;;;;2.17;1.15;;;;;;;11.04;40.53;101392.53;4976173;28;20057;-68
2022/04/02 07:16:51;;;;;;;3.67;1.48;;;;;;;11.09;40.91;101389.50;4976078;28;20042;-68
2022/04/02 07:19:21;;;;;;;3.80;1.50;;;;;;;11.15;40.56;101396.19;4976180;28;20065;-68
2022/04/02 07:21:46;;;;;;;2.92;1.75;;;;;;;11.20;40.38;101392.19;4974965;28;20107;-67
2022/04/02 07:24:12;;;;;;;1.83;1.50;;;;;;;11.27;40.34;101397.94;4976133;28;20058;-67
2022/04/02 07:26:38;;;;;;;3.25;1.67;;;;;;;11.26;40.36;101401.59;4975040;28;20061;-68
2022/04/02 07:29:04;;;;;;;0.75;0.65;;;;;;;11.34;40.21;101401.84;4975920;28;20449;-67
2022/04/02 07:31:29;;;;;;;2.17;0.52;;;;;;;11.38;40.24;101411.38;4975944;28;20027;-68
2022/04/02 07:33:55;;;;;;;1.85;1.05;;;;;;;11.39;40.13;101415.75;4975991;28;20035;-67
2022/04/02 07:36:23;;;;;;;2.90;1.00;;;;;;;11.44;40.42;101417.09;4975751;28;20030;-68
2022/04/02 07:38:57;;;;;;;1.98;1.02;;;;;;;11.50;40.10;101421.13;4975624;28;20398;-68
2022/04/02 07:41:31;;;;;;;1.90;1.02;;;;;;;11.56;39.82;101424.19;4975602;28;20480;-68
2022/04/02 07:44:08;;;;;;;4.95;0.80;;;;;;;11.66;39.41;101425.16;4972813;28;20113;-67
2022/04/02 07:46:35;;;;;;;3.30;0.95;;;;;;;11.77;40.07;101427.03;4971803;28;20042;-68
2022/04/02 07:49:02;;;;;;;2.80;1.00;;;;;;;11.83;39.96;101431.91;4955818;28;20042;-68
2022/04/02 07:51:28;;;;;;;1.48;0.90;;;;;;;11.85;39.51;101427.28;4974456;28;20094;-68
2022/04/02 07:53:56;;;;;;;7.32;2.03;;;;;;;11.87;39.89;101430.69;4974923;28;20055;-67
2022/04/02 07:56:30;;;;;;;2.30;1.20;;;;;;;11.92;39.59;101423.09;4975637;28;20062;-68
2022/04/02 07:59:01;;;;;;;7.10;0.85;;;;;;;11.98;39.86;101429.81;4974954;28;20030;-67
2022/04/02 08:01:26;;;;;;;3.83;1.48;;;;;;;12.04;39.07;101432.00;4974205;28;20077;-68
2022/04/02 08:03:52;;;;;;;2.13;1.60;;;;;;;12.13;39.54;101437.50;4974325;28;20492;-68
2022/04/02 08:06:19;;;;;;;1.45;1.10;;;;;;;12.28;39.66;101436.22;4975214;28;20041;-67
2022/04/02 08:08:45;;;;;;;2.55;1.30;;;;;;;12.40;39.07;101452.31;4973975;28;20062;-68
2022/04/02 08:11:11;;;;;;;5.65;1.30;;;;;;;12.51;39.10;101434.34;4975191;28;20081;-68
2022/04/02 08:13:38;;;;;;;4.10;1.40;;;;;;;12.64;39.14;101442.25;4973943;28;20109;-68
2022/04/02 08:16:04;;;;;;;3.90;1.20;;;;;;;12.74;38.44;101440.50;4973882;28;20037;-68
2022/04/02 08:18:29;;;;;;;3.75;1.42;;;;;;;12.87;39.18;101432.28;4975154;28;20429;-69
2022/04/02 08:20:55;;;;;;;2.70;1.20;;;;;;;12.99;38.14;101432.09;4973967;28;20203;-68
2022/04/02 08:23:21;;;;;;;2.50;1.40;;;;;;;13.08;38.75;101442.09;4973754;28;20039;-67
2022/04/02 08:26:24;;;;;;;5.15;2.00;;;;;;;13.18;38.58;101437.63;4973693;28;20035;-68
2022/04/02 08:28:55;;;;;;;3.90;1.35;;;;;;;13.23;38.01;101446.16;4975170;28;20022;-68
2022/04/02 08:31:37;;;;;;;2.97;1.88;;;;;;;13.25;38.55;101444.22;4974958;28;20019;-68
2022/04/02 08:34:22;;;;;;;4.25;1.88;;;;;;;13.33;38.18;101452.47;4957593;28;20047;-68
2022/04/02 08:36:58;;;;;;;3.30;1.98;;;;;;;13.43;38.16;101458.75;4973625;28;20023;-68
2022/04/02 08:39:31;;;;;;;1.85;1.30;;;;;;;13.58;38.22;101461.97;4973505;28;20054;-68
2022/04/02 08:41:57;;;;;;;3.45;1.23;;;;;;;13.74;38.09;101466.88;4974729;28;20023;-67
2022/04/02 08:44:37;;;;;;;3.90;1.65;;;;;;;13.90;37.70;101459.19;4975081;28;20031;-68
2022/04/02 08:47:23;;;;;;;3.35;0.80;;;;;;;13.99;37.50;101467.28;4974716;28;20037;-68
2022/04/02 08:50:07;;;;;;;0.98;0.77;;;;;;;14.06;36.63;101472.13;4973583;28;20027;-67
2022/04/02 08:53:10;;;;;;;2.45;1.10;;;;;;;14.08;36.85;101472.84;4974903;28;20395;-68
2022/04/02 08:55:36;;;;;;;1.15;0.77;;;;;;;14.11;36.75;101475.25;4957826;28;20496;-66
2022/04/02 08:58:10;;;;;;;1.55;0.93;;;;;;;14.12;37.96;101480.53;4974999;28;20106;-68
2022/04/02 09:00:40;;;;;;;1.80;0.98;;;;;;;14.12;36.98;101464.38;4955514;28;20544;-68
2022/04/02 09:03:30;;;;;;;1.17;1.00;;;;;;;14.16;37.62;101483.78;4955529;28;20035;-67
2022/04/02 09:06:30;;;;;;;3.78;1.17;;;;;;;14.15;36.76;101488.34;4955291;28;20020;-67
2022/04/02 09:09:19;;;;;;;4.15;1.83;;;;;;;14.16;36.07;101489.16;4955975;28;20413;-67
2022/04/02 09:12:07;;;;;;;1.83;0.88;;;;;;;14.11;36.26;101499.50;4958252;29;20035;-68
2022/04/02 09:14:57;;;;;;;2.55;0.80;;;;;;;14.09;36.47;101496.97;4969529;28;20114;-68
2022/04/02 09:17:48;;;;;;;3.33;0.80;;;;;;;14.12;37.10;101498.53;4978369;28;20046;-67
2022/04/02 09:20:34;;;;;;;1.60;1.05;;;;;;;14.11;36.55;101508.44;4978551;28;20472;-67
2022/04/02 09:23:10;;;;;;;4.82;0.98;;;;;;;14.08;36.56;101505.16;4977078;28;20081;-67
2022/04/02 09:26:02;;;;;;;2.53;1.25;;;;;;;14.06;36.07;101515.22;4978242;28;20023;-68
2022/04/02 09:28:40;;;;;;;1.60;1.42;;;;;;;14.00;35.75;101513.94;4978338;28;20023;-68
2022/04/02 09:31:15;;;;;;;1.15;0.98;;;;;;;13.90;36.77;101515.72;4978084;28;20444;-68
2022/04/02 09:34:08;;;;;;;2.03;1.17;;;;;;;13.86;36.12;101528.59;4978441;28;20037;-67
2022/04/02 09:37:03;;;;;;;2.20;1.08;;;;;;;13.80;35.53;101521.06;4978362;28;20035;-67
2022/04/02 09:40:09;;;;;;;1.75;1.45;;;;;;;13.85;35.14;101523.34;4951906;28;20034;-68
2022/04/02 09:42:37;;;;;;;1.48;1.05;;;;;;;13.90;36.74;101527.34;4978149;28;20484;-66
2022/04/02 09:45:09;;;;;;;2.63;1.20;;;;;;;13.98;36.30;101532.06;4978236;28;20511;-67
2022/04/02 09:47:46;;;;;;;5.78;1.88;;;;;;;14.01;36.28;101532.63;4978171;28;20089;-67
2022/04/02 09:50:13;;;;;;;7.32;1.60;;;;;;;14.02;35.43;101536.19;4957354;29;20050;-67
2022/04/02 09:52:46;;;;;;;4.57;1.60;;;;;;;13.96;36.06;101539.41;4958495;28;20023;-67
2022/04/02 09:55:16;;;;;;;3.63;1.70;;;;;;;13.96;35.59;101542.97;4958357;28;20073;-68
2022/04/02 09:58:00;;;;;;;2.95;1.42;;;;;;;13.95;36.11;101545.81;4958566;28;20493;-67
2022/04/02 10:00:34;;;;;;;2.38;1.45;;;;;;;13.95;35.34;101545.81;4958691;28;20114;-70
2022/04/02 10:03:08;;;;;;;6.75;2.20;;;;;;;13.88;36.21;101545.47;4958650;28;20031;-68
2022/04/02 10:05:42;;;;;;;2.67;1.60;;;;;;;13.83;35.10;101546.84;4958150;28;20122;-67
2022/04/02 10:08:26;;;;;;;1.65;1.48;;;;;;;13.84;35.13;101545.88;4958421;28;20026;-67
2022/04/02 10:10:51;;;;;;;1.42;0.90;;;;;;;13.90;35.25;101548.06;4959454;28;20031;-67
2022/04/02 10:13:18;;;;;;;2.15;1.30;;;;;;;13.86;35.49;101550.16;4976354;28;20524;-68
2022/04/02 10:15:45;;;;;;;3.15;1.65;;;;;;;13.74;35.21;101553.88;4976607;28;20047;-68
2022/04/02 10:18:11;;;;;;;2.15;1.20;;;;;;;13.67;35.64;101558.09;4976104;28;20461;-66
2022/04/02 10:20:38;;;;;;;4.70;1.88;;;;;;;13.62;36.79;101548.72;4975530;28;20030;-68
2022/04/02 10:23:19;;;;;;;3.03;1.10;;;;;;;13.64;35.71;101552.13;4976057;28;20023;-67
2022/04/02 10:26:09;;;;;;;3.08;1.83;;;;;;;13.63;35.49;101555.78;4977307;28;20031;-66
2022/04/02 10:28:57;;;;;;;2.78;1.15;;;;;;;13.68;35.89;101553.59;4957991;28;20046;-67
2022/04/02 10:31:37;;;;;;;2.25;1.75;;;;;;;13.77;35.00;101555.47;4958035;28;20019;-67
2022/04/02 10:34:09;;;;;;;1.90;1.75;;;;;;;13.83;35.38;101546.84;4958006;28;20027;-66
2022/04/02 10:36:40;;;;;;;2.83;1.60;;;;;;;13.99;34.82;101558.00;4956544;29;20038;-67
2022/04/02 10:39:07;;;;;;;2.83;1.75;;;;;;;14.16;35.25;101553.84;4957656;28;20106;-67
2022/04/02 10:41:33;;;;;;;3.28;1.40;;;;;;;14.16;35.96;101546.59;4957838;28;20076;-67
2022/04/02 10:44:10;;;;;;;3.60;1.63;;;;;;;14.02;35.51;101542.44;4956467;29;20412;-68
2022/04/02 10:46:38;;;;;;;2.65;1.52;;;;;;;14.08;35.81;101550.97;4956301;29;20025;-67
2022/04/02 10:49:08;;;;;;;4.38;1.35;;;;;;;14.07;35.00;101554.66;4956328;28;20035;-68
2022/04/02 10:51:38;;;;;;;1.35;1.25;;;;;;;13.99;34.72;101541.84;4956570;29;20023;-67
2022/04/02 10:54:13;;;;;;;2.13;1.15;;;;;;;13.96;35.42;101550.19;4957093;28;20123;-67
2022/04/02 10:56:45;;;;;;;2.65;1.40;;;;;;;13.97;34.85;101546.53;4957575;28;20031;-67
2022/04/02 10:59:14;;;;;;;1.40;1.30;;;;;;;14.11;34.96;101548.00;4957455;28;20170;-67
2022/04/02 11:01:41;;;;;;;3.03;1.60;;;;;;;14.30;34.57;101548.94;4956339;28;20038;-67
2022/04/02 11:04:44;;;;;;;2.90;1.42;;;;;;;14.40;35.44;101552.59;4975342;28;20031;-67
2022/04/02 11:07:09;;;;;;;3.20;1.85;;;;;;;14.42;35.48;101555.13;4975385;28;20031;-68
2022/04/02 11:09:41;;;;;;;2.65;1.40;;;;;;;14.35;34.32;101553.97;4976352;28;20495;-67
2022/04/02 11:12:17;;;;;;;1.98;1.42;;;;;;;14.33;34.95;101559.50;4976427;28;20027;-67
2022/04/02 11:14:49;;;;;;;4.57;1.50;;;;;;;14.30;35.93;101557.03;4975200;28;20030;-67
2022/04/02 11:17:28;;;;;;;3.30;1.45;;;;;;;14.19;34.99;101565.22;4976391;28;20603;-67
2022/04/02 11:20:03;;;;;;;2.55;1.50;;;;;;;14.09;34.95;101569.69;4976239;28;20027;-68
2022/04/02 11:22:52;;;;;;;3.08;1.58;;;;;;;14.08;35.48;101578.75;4976102;28;20113;-68
2022/04/02 11:25:36;;;;;;;4.28;1.85;;;;;;;14.02;35.73;101588.22;4946329;28;20042;-67
2022/04/02 11:28:04;;;;;;;2.15;1.55;;;;;;;13.94;36.19;101579.09;4975963;28;20032;-67
2022/04/02 11:30:32;;;;;;;3.17;1.70;;;;;;;13.98;35.75;101583.25;4974675;28;20031;-67
2022/04/02 11:33:16;;;;;;;5.03;1.50;;;;;;;14.22;35.01;101586.50;4973936;28;20383;-67
2022/04/02 11:35:51;;;;;;;2.60;1.63;;;;;;;14.24;35.25;101576.44;4975975;28;20086;-68
2022/04/02 11:38:19;;;;;;;5.00;1.92;;;;;;;14.25;35.67;101588.94;4975891;28;20453;-67
2022/04/02 11:40:56;;;;;;;4.18;1.90;;;;;;;14.18;35.35;101585.03;4975642;28;20038;-67